sensor_id;sensor_type;location;lat;lon;timestamp;pressure;altitude;pressure_sealevel;temperature;humidity
24858;BME280;12935;50.782;6.074;2023-02-21T00:02:06;99990.91;;;7.17;100.00
24858;BME280;12935;50.782;6.074;2023-02-21T00:04:50;99983.97;;;7.19;100.00
24858;BME280;12935;50.782;6.074;2023-02-21T00:07:34;99989.31;;;7.16;100.00
24858;BME280;12935;50.782;6.074;2023-02-21T00:10:18;100001.91;;;7.04;100.00
24858;BME280;12935;50.782;6.074;2023-02-21T00:13:02;99992.91;;;7.20;100.00
24858;BME280;12935;50.782;6.074;2023-02-21T00:15:46;99998.91;;;6.90;100.00
24858;BME280;12935;50.782;6.074;2023-02-21T00:18:34;99996.63;;;6.92;100.00
24858;BME280;12935;50.782;6.074;2023-02-21T00:21:18;99998.50;;;7.08;100.00
24858;BME280;12935;50.782;6.074;2023-02-21T00:24:03;100002.13;;;6.96;100.00
24858;BME280;12935;50.782;6.074;2023-02-21T00:26:47;99998.78;;;7.02;100.00
24858;BME280;12935;50.782;6.074;2023-02-21T00:29:31;99994.31;;;7.14;100.00
24858;BME280;12935;50.782;6.074;2023-02-21T00:32:14;99992.03;;;6.96;100.00
24858;BME280;12935;50.782;6.074;2023-02-21T00:34:58;99996.63;;;6.92;100.00
24858;BME280;12935;50.782;6.074;2023-02-21T00:37:42;99991.19;;;6.92;100.00
24858;BME280;12935;50.782;6.074;2023-02-21T00:40:26;99984.38;;;6.83;100.00
24858;BME280;12935;50.782;6.074;2023-02-21T00:43:10;99992.75;;;6.74;100.00
24858;BME280;12935;50.782;6.074;2023-02-21T00:45:54;100006.28;;;6.90;100.00
24858;BME280;12935;50.782;6.074;2023-02-21T00:48:38;99994.91;;;6.84;100.00
24858;BME280;12935;50.782;6.074;2023-02-21T00:51:22;99986.69;;;7.00;100.00
24858;BME280;12935;50.782;6.074;2023-02-21T00:54:06;99987.03;;;6.98;100.00
24858;BME280;12935;50.782;6.074;2023-02-21T00:56:50;99988.84;;;6.91;100.00
24858;BME280;12935;50.782;6.074;2023-02-21T00:59:34;99988.84;;;6.91;100.00
24858;BME280;12935;50.782;6.074;2023-02-21T01:02:18;99984.81;;;6.85;100.00
24858;BME280;12935;50.782;6.074;2023-02-21T01:05:02;99981.75;;;6.86;100.00
24858;BME280;12935;50.782;6.074;2023-02-21T01:07:46;99971.47;;;6.76;100.00
24858;BME280;12935;50.782;6.074;2023-02-21T01:10:30;99970.81;;;7.02;100.00
24858;BME280;12935;50.782;6.074;2023-02-21T01:13:14;99965.19;;;6.91;100.00
24858;BME280;12935;50.782;6.074;2023-02-21T01:15:58;99978.38;;;6.93;100.00
24858;BME280;12935;50.782;6.074;2023-02-21T01:18:42;99979.25;;;6.97;100.00
24858;BME280;12935;50.782;6.074;2023-02-21T01:21:26;99971.00;;;6.93;100.00
24858;BME280;12935;50.782;6.074;2023-02-21T01:24:14;99976.97;;;6.99;100.00
24858;BME280;12935;50.782;6.074;2023-02-21T01:26:58;99973.88;;;6.81;100.00
24858;BME280;12935;50.782;6.074;2023-02-21T01:29:42;99984.59;;;6.74;100.00
24858;BME280;12935;50.782;6.074;2023-02-21T01:32:26;99970.00;;;6.82;100.00
24858;BME280;12935;50.782;6.074;2023-02-21T01:35:10;99974.03;;;6.88;100.00
24858;BME280;12935;50.782;6.074;2023-02-21T01:37:56;99975.31;;;6.75;100.00
24858;BME280;12935;50.782;6.074;2023-02-21T01:40:40;99977.06;;;6.67;100.00
24858;BME280;12935;50.782;6.074;2023-02-21T01:43:25;99984.00;;;6.65;100.00
24858;BME280;12935;50.782;6.074;2023-02-21T01:46:12;99979.03;;;6.86;100.00
24858;BME280;12935;50.782;6.074;2023-02-21T01:49:05;99979.13;;;6.90;100.00
24858;BME280;12935;50.782;6.074;2023-02-21T01:51:51;99971.94;;;7.01;100.00
24858;BME280;12935;50.782;6.074;2023-02-21T01:54:40;99981.81;;;7.09;100.00
24858;BME280;12935;50.782;6.074;2023-02-21T01:57:24;99979.47;;;7.08;100.00
24858;BME280;12935;50.782;6.074;2023-02-21T02:00:10;99973.38;;;6.95;100.00
24858;BME280;12935;50.782;6.074;2023-02-21T02:03:00;99979.53;;;6.92;100.00
24858;BME280;12935;50.782;6.074;2023-02-21T02:05:48;99975.75;;;6.96;100.00
24858;BME280;12935;50.782;6.074;2023-02-21T02:08:33;99974.47;;;6.90;100.00
24858;BME280;12935;50.782;6.074;2023-02-21T02:20:08;99979.47;;;7.08;100.00
24858;BME280;12935;50.782;6.074;2023-02-21T02:26:19;99973.16;;;6.84;100.00
24858;BME280;12935;50.782;6.074;2023-02-21T02:36:52;99967.38;;;6.86;100.00
24858;BME280;12935;50.782;6.074;2023-02-21T02:42:24;99977.31;;;6.97;100.00
24858;BME280;12935;50.782;6.074;2023-02-21T02:45:00;99964.44;;;6.75;100.00
24858;BME280;12935;50.782;6.074;2023-02-21T02:47:35;99963.31;;;6.76;100.00
24858;BME280;12935;50.782;6.074;2023-02-21T02:50:02;99954.88;;;6.81;100.00
24858;BME280;12935;50.782;6.074;2023-02-21T02:52:29;99953.00;;;6.66;100.00
24858;BME280;12935;50.782;6.074;2023-02-21T02:54:58;99947.44;;;6.59;100.00
24858;BME280;12935;50.782;6.074;2023-02-21T02:57:23;99940.00;;;6.56;100.00
24858;BME280;12935;50.782;6.074;2023-02-21T02:59:49;99939.78;;;6.64;100.00
24858;BME280;12935;50.782;6.074;2023-02-21T03:02:21;99940.41;;;6.77;100.00
24858;BME280;12935;50.782;6.074;2023-02-21T03:05:17;99936.56;;;6.78;100.00
24858;BME280;12935;50.782;6.074;2023-02-21T03:07:47;99940.06;;;6.98;100.00
24858;BME280;12935;50.782;6.074;2023-02-21T03:10:34;99927.53;;;6.93;100.00
24858;BME280;12935;50.782;6.074;2023-02-21T03:15:37;99934.28;;;6.80;100.00
24858;BME280;12935;50.782;6.074;2023-02-21T03:18:08;99928.41;;;6.97;100.00
24858;BME280;12935;50.782;6.074;2023-02-21T03:20:37;99928.91;;;6.84;100.00
24858;BME280;12935;50.782;6.074;2023-02-21T03:23:03;99925.13;;;6.88;100.00
24858;BME280;12935;50.782;6.074;2023-02-21T03:25:32;99926.34;;;6.91;100.00
24858;BME280;12935;50.782;6.074;2023-02-21T03:27:59;99929.41;;;7.09;100.00
24858;BME280;12935;50.782;6.074;2023-02-21T03:30:24;99933.41;;;6.95;100.00
24858;BME280;12935;50.782;6.074;2023-02-21T03:32:51;99926.84;;;6.77;100.00
24858;BME280;12935;50.782;6.074;2023-02-21T03:35:18;99926.47;;;6.98;100.00
24858;BME280;12935;50.782;6.074;2023-02-21T03:37:47;99921.19;;;6.86;100.00
24858;BME280;12935;50.782;6.074;2023-02-21T03:40:27;99928.72;;;6.73;100.00
24858;BME280;12935;50.782;6.074;2023-02-21T03:42:53;99917.06;;;6.92;100.00
24858;BME280;12935;50.782;6.074;2023-02-21T03:45:19;99917.91;;;6.96;100.00
24858;BME280;12935;50.782;6.074;2023-02-21T03:47:44;99917.78;;;7.08;100.00
24858;BME280;12935;50.782;6.074;2023-02-21T03:50:10;99915.25;;;6.99;100.00
24858;BME280;12935;50.782;6.074;2023-02-21T03:52:35;99912.69;;;6.87;100.00
24858;BME280;12935;50.782;6.074;2023-02-21T03:55:01;99907.25;;;7.07;100.00
24858;BME280;12935;50.782;6.074;2023-02-21T03:57:26;99917.69;;;7.04;100.00
24858;BME280;12935;50.782;6.074;2023-02-21T03:59:52;99907.00;;;6.92;100.00
24858;BME280;12935;50.782;6.074;2023-02-21T04:02:17;99912.19;;;7.01;100.00
24858;BME280;12935;50.782;6.074;2023-02-21T04:04:43;99908.84;;;6.69;100.00
24858;BME280;12935;50.782;6.074;2023-02-21T04:07:09;99903.63;;;6.80;100.00
24858;BME280;12935;50.782;6.074;2023-02-21T04:09:35;99903.75;;;6.87;100.00
24858;BME280;12935;50.782;6.074;2023-02-21T04:12:00;99904.09;;;7.04;100.00
24858;BME280;12935;50.782;6.074;2023-02-21T04:14:25;99910.63;;;7.00;100.00
24858;BME280;12935;50.782;6.074;2023-02-21T04:16:51;99908.69;;;7.00;100.00
24858;BME280;12935;50.782;6.074;2023-02-21T04:19:16;99893.75;;;6.91;100.00
24858;BME280;12935;50.782;6.074;2023-02-21T04:21:41;99898.16;;;6.99;100.00
24858;BME280;12935;50.782;6.074;2023-02-21T04:24:07;99894.59;;;6.95;100.00
24858;BME280;12935;50.782;6.074;2023-02-21T04:26:32;99900.69;;;6.88;100.00
24858;BME280;12935;50.782;6.074;2023-02-21T04:29:00;99905.53;;;6.98;100.00
24858;BME280;12935;50.782;6.074;2023-02-21T04:31:25;99902.88;;;7.02;100.00
24858;BME280;12935;50.782;6.074;2023-02-21T04:33:51;99902.19;;;7.05;100.00
24858;BME280;12935;50.782;6.074;2023-02-21T04:36:16;99899.28;;;6.75;100.00
24858;BME280;12935;50.782;6.074;2023-02-21T04:38:42;99901.63;;;6.77;100.00
24858;BME280;12935;50.782;6.074;2023-02-21T04:41:07;99905.75;;;6.51;100.00
24858;BME280;12935;50.782;6.074;2023-02-21T04:43:32;99893.06;;;6.55;100.00
24858;BME280;12935;50.782;6.074;2023-02-21T04:45:59;99894.31;;;6.61;100.00
24858;BME280;12935;50.782;6.074;2023-02-21T04:48:24;99888.75;;;6.54;100.00
24858;BME280;12935;50.782;6.074;2023-02-21T04:50:50;99887.19;;;6.73;100.00
24858;BME280;12935;50.782;6.074;2023-02-21T04:53:15;99889.19;;;6.76;100.00
24858;BME280;12935;50.782;6.074;2023-02-21T04:55:40;99894.31;;;6.61;100.00
24858;BME280;12935;50.782;6.074;2023-02-21T04:58:06;99883.16;;;6.47;100.00
24858;BME280;12935;50.782;6.074;2023-02-21T05:00:31;99883.03;;;6.40;100.00
24858;BME280;12935;50.782;6.074;2023-02-21T05:02:56;99883.47;;;6.61;100.00
24858;BME280;12935;50.782;6.074;2023-02-21T05:05:22;99888.84;;;6.58;100.00
24858;BME280;12935;50.782;6.074;2023-02-21T05:07:47;99889.13;;;6.72;100.00
24858;BME280;12935;50.782;6.074;2023-02-21T05:10:14;99886.47;;;6.76;100.00
24858;BME280;12935;50.782;6.074;2023-02-21T05:12:40;99888.19;;;6.84;100.00
24858;BME280;12935;50.782;6.074;2023-02-21T05:15:06;99883.59;;;6.88;100.00
24858;BME280;12935;50.782;6.074;2023-02-21T05:17:31;99890.69;;;6.92;100.00
24858;BME280;12935;50.782;6.074;2023-02-21T05:19:57;99881.19;;;6.83;100.00
24858;BME280;12935;50.782;6.074;2023-02-21T05:22:22;99885.97;;;6.89;100.00
24858;BME280;12935;50.782;6.074;2023-02-21T05:24:48;99890.38;;;6.78;100.00
24858;BME280;12935;50.782;6.074;2023-02-21T05:27:15;99882.97;;;6.75;100.00
24858;BME280;12935;50.782;6.074;2023-02-21T05:29:44;99874.84;;;6.56;100.00
24858;BME280;12935;50.782;6.074;2023-02-21T05:32:09;99884.31;;;6.65;100.00
24858;BME280;12935;50.782;6.074;2023-02-21T05:34:35;99886.97;;;6.43;100.00
24858;BME280;12935;50.782;6.074;2023-02-21T05:37:00;99887.69;;;6.40;100.00
24858;BME280;12935;50.782;6.074;2023-02-21T05:39:25;99887.75;;;6.43;100.00
24858;BME280;12935;50.782;6.074;2023-02-21T05:41:50;99878.66;;;6.36;100.00
24858;BME280;12935;50.782;6.074;2023-02-21T05:44:16;99884.31;;;6.27;100.00
24858;BME280;12935;50.782;6.074;2023-02-21T05:46:42;99880.91;;;6.14;100.00
24858;BME280;12935;50.782;6.074;2023-02-21T05:49:07;99881.75;;;5.99;100.00
24858;BME280;12935;50.782;6.074;2023-02-21T05:51:34;99886.13;;;6.04;100.00
24858;BME280;12935;50.782;6.074;2023-02-21T05:54:00;99879.22;;;5.90;100.00
24858;BME280;12935;50.782;6.074;2023-02-21T05:56:26;99885.44;;;5.91;100.00
24858;BME280;12935;50.782;6.074;2023-02-21T05:58:51;99877.88;;;5.84;100.00
24858;BME280;12935;50.782;6.074;2023-02-21T06:01:16;99888.34;;;5.98;100.00
24858;BME280;12935;50.782;6.074;2023-02-21T06:03:42;99882.53;;;5.99;100.00
24858;BME280;12935;50.782;6.074;2023-02-21T06:06:07;99882.28;;;5.89;100.00
24858;BME280;12935;50.782;6.074;2023-02-21T06:08:41;99886.13;;;6.04;100.00
24858;BME280;12935;50.782;6.074;2023-02-21T06:11:07;99879.28;;;6.10;100.00
24858;BME280;12935;50.782;6.074;2023-02-21T06:13:32;99883.13;;;6.09;100.00
24858;BME280;12935;50.782;6.074;2023-02-21T06:15:57;99886.69;;;6.28;100.00
24858;BME280;12935;50.782;6.074;2023-02-21T06:18:22;99890.19;;;6.29;100.00
24858;BME280;12935;50.782;6.074;2023-02-21T06:20:48;99888.91;;;6.07;100.00
24858;BME280;12935;50.782;6.074;2023-02-21T06:23:13;99888.75;;;6.00;100.00
24858;BME280;12935;50.782;6.074;2023-02-21T06:25:38;99887.38;;;5.90;100.00
24858;BME280;12935;50.782;6.074;2023-02-21T06:28:04;99896.16;;;5.87;100.00
24858;BME280;12935;50.782;6.074;2023-02-21T06:30:29;99899.66;;;5.88;100.00
24858;BME280;12935;50.782;6.074;2023-02-21T06:32:54;99905.09;;;5.88;100.00
24858;BME280;12935;50.782;6.074;2023-02-21T06:35:20;99901.78;;;5.79;100.00
24858;BME280;12935;50.782;6.074;2023-02-21T06:37:45;99894.94;;;5.85;100.00
24858;BME280;12935;50.782;6.074;2023-02-21T06:40:10;99897.44;;;5.90;100.00
24858;BME280;12935;50.782;6.074;2023-02-21T06:42:36;99900.47;;;6.04;100.00
24858;BME280;12935;50.782;6.074;2023-02-21T06:45:01;99900.91;;;6.06;100.00
24858;BME280;12935;50.782;6.074;2023-02-21T06:47:26;99897.94;;;6.11;100.00
24858;BME280;12935;50.782;6.074;2023-02-21T06:49:52;99899.91;;;6.14;100.00
24858;BME280;12935;50.782;6.074;2023-02-21T06:52:17;99895.31;;;5.99;100.00
24858;BME280;12935;50.782;6.074;2023-02-21T06:54:42;99898.53;;;6.05;100.00
24858;BME280;12935;50.782;6.074;2023-02-21T06:57:07;99897.94;;;5.95;100.00
24858;BME280;12935;50.782;6.074;2023-02-21T06:59:33;99893.13;;;6.05;100.00
24858;BME280;12935;50.782;6.074;2023-02-21T07:01:58;99896.03;;;5.96;100.00
24858;BME280;12935;50.782;6.074;2023-02-21T07:04:24;99896.50;;;6.17;100.00
24858;BME280;12935;50.782;6.074;2023-02-21T07:06:50;99896.09;;;6.34;100.00
24858;BME280;12935;50.782;6.074;2023-02-21T07:09:15;99884.44;;;6.34;100.00
24858;BME280;12935;50.782;6.074;2023-02-21T07:11:41;99901.06;;;6.13;100.00
24858;BME280;12935;50.782;6.074;2023-02-21T07:14:06;99908.34;;;6.09;100.00
24858;BME280;12935;50.782;6.074;2023-02-21T07:16:32;99899.91;;;6.14;100.00
24858;BME280;12935;50.782;6.074;2023-02-21T07:18:57;99907.88;;;6.23;100.00
24858;BME280;12935;50.782;6.074;2023-02-21T07:21:25;99907.91;;;6.07;100.00
24858;BME280;12935;50.782;6.074;2023-02-21T07:23:50;99906.63;;;6.20;100.00
24858;BME280;12935;50.782;6.074;2023-02-21T07:26:15;99911.63;;;6.18;100.00
24858;BME280;12935;50.782;6.074;2023-02-21T07:28:41;99908.34;;;6.09;100.00
24858;BME280;12935;50.782;6.074;2023-02-21T07:31:06;99903.44;;;5.99;100.00
24858;BME280;12935;50.782;6.074;2023-02-21T07:33:32;99906.59;;;5.85;100.00
24858;BME280;12935;50.782;6.074;2023-02-21T07:35:57;99903.97;;;6.05;100.00
24858;BME280;12935;50.782;6.074;2023-02-21T07:38:25;99900.47;;;6.04;100.00
24858;BME280;12935;50.782;6.074;2023-02-21T07:40:53;99903.34;;;6.11;100.00
24858;BME280;12935;50.782;6.074;2023-02-21T07:43:19;99904.06;;;6.08;100.00
24858;BME280;12935;50.782;6.074;2023-02-21T07:45:44;99904.06;;;6.08;100.00
24858;BME280;12935;50.782;6.074;2023-02-21T07:48:09;99895.53;;;6.25;100.00
24858;BME280;12935;50.782;6.074;2023-02-21T07:50:38;99901.91;;;6.17;100.00
24858;BME280;12935;50.782;6.074;2023-02-21T07:53:03;99908.31;;;6.25;100.00
24858;BME280;12935;50.782;6.074;2023-02-21T07:55:29;99916.41;;;6.41;100.00
24858;BME280;12935;50.782;6.074;2023-02-21T07:57:54;99918.50;;;6.31;100.00
24858;BME280;12935;50.782;6.074;2023-02-21T08:00:19;99911.41;;;6.08;100.00
24858;BME280;12935;50.782;6.074;2023-02-21T08:02:49;99923.16;;;5.96;100.00
24858;BME280;12935;50.782;6.074;2023-02-21T08:05:16;99914.66;;;5.97;100.00
24858;BME280;12935;50.782;6.074;2023-02-21T08:07:42;99912.00;;;5.85;100.00
24858;BME280;12935;50.782;6.074;2023-02-21T08:10:08;99903.72;;;5.94;100.00
24858;BME280;12935;50.782;6.074;2023-02-21T08:12:33;99910.44;;;5.84;100.00
24858;BME280;12935;50.782;6.074;2023-02-21T08:14:59;99917.19;;;5.75;100.00
24858;BME280;12935;50.782;6.074;2023-02-21T08:17:24;99908.78;;;5.80;100.00
24858;BME280;12935;50.782;6.074;2023-02-21T08:19:50;99908.06;;;5.83;100.00
24858;BME280;12935;50.782;6.074;2023-02-21T08:22:15;99905.63;;;6.09;100.00
24858;BME280;12935;50.782;6.074;2023-02-21T08:24:40;99910.00;;;6.14;100.00
24858;BME280;12935;50.782;6.074;2023-02-21T08:27:05;99911.06;;;5.93;100.00
24858;BME280;12935;50.782;6.074;2023-02-21T08:29:31;99908.50;;;5.85;100.00
24858;BME280;12935;50.782;6.074;2023-02-21T08:31:56;99908.00;;;5.79;100.00
24858;BME280;12935;50.782;6.074;2023-02-21T08:34:21;99909.13;;;5.78;100.00
24858;BME280;12935;50.782;6.074;2023-02-21T08:36:46;99907.50;;;5.89;100.00
24858;BME280;12935;50.782;6.074;2023-02-21T08:39:12;99900.03;;;5.86;100.00
24858;BME280;12935;50.782;6.074;2023-02-21T08:41:44;99901.38;;;5.92;100.00
24858;BME280;12935;50.782;6.074;2023-02-21T08:44:12;99907.22;;;5.94;100.00
24858;BME280;12935;50.782;6.074;2023-02-21T08:46:37;99901.09;;;5.97;100.00
24858;BME280;12935;50.782;6.074;2023-02-21T08:49:04;99900.88;;;6.22;100.00
24858;BME280;12935;50.782;6.074;2023-02-21T08:51:31;99894.25;;;6.04;100.00
24858;BME280;12935;50.782;6.074;2023-02-21T08:53:57;99894.50;;;5.98;100.00
24858;BME280;12935;50.782;6.074;2023-02-21T08:56:24;99897.66;;;6.01;100.00
24858;BME280;12935;50.782;6.074;2023-02-21T08:58:50;99891.63;;;6.07;100.00
24858;BME280;12935;50.782;6.074;2023-02-21T09:01:17;99889.72;;;5.92;100.00
24858;BME280;12935;50.782;6.074;2023-02-21T09:03:43;99889.09;;;5.98;100.00
24858;BME280;12935;50.782;6.074;2023-02-21T09:06:08;99890.41;;;6.05;100.00
24858;BME280;12935;50.782;6.074;2023-02-21T09:08:34;99886.34;;;6.14;100.00
24858;BME280;12935;50.782;6.074;2023-02-21T09:11:03;99881.72;;;6.34;100.00
24858;BME280;12935;50.782;6.074;2023-02-21T09:13:29;99882.34;;;6.43;100.00
24858;BME280;12935;50.782;6.074;2023-02-21T09:15:58;99879.31;;;6.48;100.00
24858;BME280;12935;50.782;6.074;2023-02-21T09:18:23;99889.25;;;6.41;100.00
24858;BME280;12935;50.782;6.074;2023-02-21T09:20:49;99882.34;;;6.43;100.00
24858;BME280;12935;50.782;6.074;2023-02-21T09:23:23;99872.97;;;6.60;100.00
24858;BME280;12935;50.782;6.074;2023-02-21T09:25:50;99872.16;;;6.79;100.00
24858;BME280;12935;50.782;6.074;2023-02-21T09:28:16;99870.75;;;6.85;100.00
24858;BME280;12935;50.782;6.074;2023-02-21T09:30:41;99869.03;;;6.77;100.00
24858;BME280;12935;50.782;6.074;2023-02-21T09:33:07;99861.63;;;6.54;100.00
24858;BME280;12935;50.782;6.074;2023-02-21T09:35:32;99869.53;;;6.63;100.00
24858;BME280;12935;50.782;6.074;2023-02-21T09:37:59;99874.00;;;6.94;100.00
24858;BME280;12935;50.782;6.074;2023-02-21T09:40:44;99871.25;;;6.71;100.00
24858;BME280;12935;50.782;6.074;2023-02-21T09:43:15;99872.88;;;6.95;100.00
24858;BME280;12935;50.782;6.074;2023-02-21T09:45:43;99874.66;;;6.87;100.00
24858;BME280;12935;50.782;6.074;2023-02-21T09:48:14;99872.28;;;7.05;100.00
24858;BME280;12935;50.782;6.074;2023-02-21T09:50:51;99872.94;;;6.98;100.00
24858;BME280;12935;50.782;6.074;2023-02-21T09:53:25;99873.91;;;7.10;100.00
24858;BME280;12935;50.782;6.074;2023-02-21T09:55:54;99876.69;;;7.13;100.00
24858;BME280;12935;50.782;6.074;2023-02-21T09:58:21;99883.69;;;7.14;100.00
24858;BME280;12935;50.782;6.074;2023-02-21T10:00:47;99873.91;;;7.10;100.00
24858;BME280;12935;50.782;6.074;2023-02-21T10:06:13;99857.19;;;7.30;100.00
24858;BME280;12935;50.782;6.074;2023-02-21T10:09:02;99854.00;;;7.25;100.00
24858;BME280;12935;50.782;6.074;2023-02-21T10:17:09;99860.28;;;7.78;100.00
24858;BME280;12935;50.782;6.074;2023-02-21T10:19:42;99857.38;;;8.20;100.00
24858;BME280;12935;50.782;6.074;2023-02-21T10:22:19;99838.53;;;8.34;100.00
24858;BME280;12935;50.782;6.074;2023-02-21T10:24:46;99851.59;;;8.52;100.00
24858;BME280;12935;50.782;6.074;2023-02-21T10:27:16;99857.94;;;8.59;100.00
24858;BME280;12935;50.782;6.074;2023-02-21T10:32:37;99838.47;;;8.94;100.00
24858;BME280;12935;50.782;6.074;2023-02-21T10:35:03;99839.16;;;8.88;100.00
24858;BME280;12935;50.782;6.074;2023-02-21T10:37:45;99833.81;;;8.95;100.00
24858;BME280;12935;50.782;6.074;2023-02-21T10:46:01;99833.00;;;9.35;100.00
24858;BME280;12935;50.782;6.074;2023-02-21T10:48:35;99836.38;;;9.69;100.00
24858;BME280;12935;50.782;6.074;2023-02-21T10:51:14;99841.91;;;9.79;100.00
24858;BME280;12935;50.782;6.074;2023-02-21T10:53:44;99836.94;;;9.96;100.00
24858;BME280;12935;50.782;6.074;2023-02-21T10:58:43;99836.13;;;9.88;100.00
24858;BME280;12935;50.782;6.074;2023-02-21T11:01:19;99839.34;;;10.08;100.00
24858;BME280;12935;50.782;6.074;2023-02-21T11:03:51;99841.47;;;10.39;100.00
24858;BME280;12935;50.782;6.074;2023-02-21T11:06:26;99834.94;;;10.62;100.00
24858;BME280;12935;50.782;6.074;2023-02-21T11:08:56;99832.66;;;10.88;100.00
24858;BME280;12935;50.782;6.074;2023-02-21T11:11:36;99835.06;;;11.18;100.00
24858;BME280;12935;50.782;6.074;2023-02-21T11:14:21;99824.53;;;11.17;100.00
24858;BME280;12935;50.782;6.074;2023-02-21T11:19:42;99812.81;;;11.77;100.00
24858;BME280;12935;50.782;6.074;2023-02-21T11:22:08;99813.81;;;12.29;100.00
24858;BME280;12935;50.782;6.074;2023-02-21T11:25:05;99799.63;;;12.55;100.00
24858;BME280;12935;50.782;6.074;2023-02-21T11:27:32;99804.66;;;12.60;100.00
24858;BME280;12935;50.782;6.074;2023-02-21T11:29:58;99805.81;;;12.74;100.00
24858;BME280;12935;50.782;6.074;2023-02-21T11:33:08;99794.72;;;13.47;100.00
24858;BME280;12935;50.782;6.074;2023-02-21T11:37:55;99792.97;;;12.53;100.00
24858;BME280;12935;50.782;6.074;2023-02-21T11:40:40;99796.00;;;12.73;100.00
24858;BME280;12935;50.782;6.074;2023-02-21T11:45:37;99784.88;;;13.49;100.00
24858;BME280;12935;50.782;6.074;2023-02-21T11:48:12;99778.72;;;13.79;100.00
24858;BME280;12935;50.782;6.074;2023-02-21T11:50:43;99777.13;;;13.82;100.00
24858;BME280;12935;50.782;6.074;2023-02-21T11:58:55;99771.00;;;14.35;100.00
24858;BME280;12935;50.782;6.074;2023-02-21T12:01:34;99779.44;;;14.17;98.58
24858;BME280;12935;50.782;6.074;2023-02-21T12:04:14;99759.88;;;14.15;99.83
24858;BME280;12935;50.782;6.074;2023-02-21T12:09:49;99755.72;;;15.61;98.08
24858;BME280;12935;50.782;6.074;2023-02-21T12:12:36;99756.41;;;14.95;94.72
24858;BME280;12935;50.782;6.074;2023-02-21T12:15:11;99756.13;;;14.63;98.80
24858;BME280;12935;50.782;6.074;2023-02-21T12:23:11;99741.06;;;14.10;100.00
24858;BME280;12935;50.782;6.074;2023-02-21T12:28:38;99743.66;;;13.90;100.00
24858;BME280;12935;50.782;6.074;2023-02-21T12:39:57;99729.28;;;14.13;100.00
24858;BME280;12935;50.782;6.074;2023-02-21T12:45:33;99723.38;;;14.15;100.00
24858;BME280;12935;50.782;6.074;2023-02-21T12:48:07;99723.78;;;14.13;100.00
24858;BME280;12935;50.782;6.074;2023-02-21T12:50:39;99725.38;;;14.11;100.00
24858;BME280;12935;50.782;6.074;2023-02-21T12:53:19;99724.03;;;14.53;100.00
24858;BME280;12935;50.782;6.074;2023-02-21T12:58:46;99707.47;;;15.30;97.28
24858;BME280;12935;50.782;6.074;2023-02-21T13:01:20;99707.31;;;15.40;96.28
24858;BME280;12935;50.782;6.074;2023-02-21T13:10:00;99703.81;;;15.60;90.33
24858;BME280;12935;50.782;6.074;2023-02-21T13:12:37;99708.88;;;14.68;98.16
24858;BME280;12935;50.782;6.074;2023-02-21T13:15:18;99711.28;;;14.93;100.00
24858;BME280;12935;50.782;6.074;2023-02-21T13:17:51;99705.66;;;15.43;96.57
24858;BME280;12935;50.782;6.074;2023-02-21T13:20:20;99703.44;;;14.64;99.01
24858;BME280;12935;50.782;6.074;2023-02-21T13:28:45;99689.84;;;14.54;100.00
24858;BME280;12935;50.782;6.074;2023-02-21T13:31:21;99681.44;;;14.64;100.00
24858;BME280;12935;50.782;6.074;2023-02-21T13:33:50;99679.47;;;14.65;100.00
24858;BME280;12935;50.782;6.074;2023-02-21T13:36:40;99672.91;;;15.49;98.51
24858;BME280;12935;50.782;6.074;2023-02-21T13:39:15;99664.78;;;14.75;98.88
24858;BME280;12935;50.782;6.074;2023-02-21T13:41:47;99661.63;;;14.50;100.00
24858;BME280;12935;50.782;6.074;2023-02-21T13:44:41;99660.66;;;14.63;100.00
24858;BME280;12935;50.782;6.074;2023-02-21T13:47:13;99662.44;;;15.20;97.15
24858;BME280;12935;50.782;6.074;2023-02-21T13:49:54;99663.66;;;16.87;86.67
24858;BME280;12935;50.782;6.074;2023-02-21T14:08:26;99648.34;;;20.92;51.08
24858;BME280;12935;50.782;6.074;2023-02-21T14:16:45;99647.25;;;14.38;91.87
24858;BME280;12935;50.782;6.074;2023-02-21T14:19:18;99650.47;;;13.73;100.00
24858;BME280;12935;50.782;6.074;2023-02-21T14:21:47;99645.09;;;13.28;100.00
24858;BME280;12935;50.782;6.074;2023-02-21T14:24:21;99642.72;;;12.89;100.00
24858;BME280;12935;50.782;6.074;2023-02-21T14:29:44;99645.47;;;12.41;100.00
24858;BME280;12935;50.782;6.074;2023-02-21T14:37:40;99631.88;;;12.75;100.00
24858;BME280;12935;50.782;6.074;2023-02-21T14:40:16;99634.41;;;12.51;100.00
24858;BME280;12935;50.782;6.074;2023-02-21T14:45:26;99638.34;;;11.74;100.00
24858;BME280;12935;50.782;6.074;2023-02-21T14:47:56;99629.47;;;11.48;100.00
24858;BME280;12935;50.782;6.074;2023-02-21T14:53:37;99629.13;;;11.32;100.00
24858;BME280;12935;50.782;6.074;2023-02-21T15:04:54;99627.63;;;11.10;100.00
24858;BME280;12935;50.782;6.074;2023-02-21T15:07:30;99624.50;;;11.11;100.00
24858;BME280;12935;50.782;6.074;2023-02-21T15:12:41;99623.72;;;10.89;100.00
24858;BME280;12935;50.782;6.074;2023-02-21T15:15:17;99624.41;;;11.36;100.00
24858;BME280;12935;50.782;6.074;2023-02-21T15:17:53;99618.94;;;11.47;100.00
24858;BME280;12935;50.782;6.074;2023-02-21T15:20:20;99623.50;;;11.71;100.00
24858;BME280;12935;50.782;6.074;2023-02-21T15:22:45;99628.59;;;11.80;100.00
24858;BME280;12935;50.782;6.074;2023-02-21T15:25:19;99626.69;;;11.52;100.00
24858;BME280;12935;50.782;6.074;2023-02-21T15:27:57;99624.28;;;11.72;100.00
24858;BME280;12935;50.782;6.074;2023-02-21T15:30:34;99616.81;;;11.83;100.00
24858;BME280;12935;50.782;6.074;2023-02-21T15:33:14;99624.34;;;11.61;100.00
24858;BME280;12935;50.782;6.074;2023-02-21T15:35:47;99622.84;;;11.42;100.00
24858;BME280;12935;50.782;6.074;2023-02-21T15:38:18;99621.00;;;11.00;100.00
24858;BME280;12935;50.782;6.074;2023-02-21T15:40:46;99623.75;;;10.82;100.00
24858;BME280;12935;50.782;6.074;2023-02-21T15:43:22;99622.13;;;11.13;100.00
24858;BME280;12935;50.782;6.074;2023-02-21T15:45:48;99610.03;;;11.04;100.00